createdAt,value
2022-09-26T00:01:08.151Z,100513.98
2022-09-26T00:03:36.603Z,100509.36
2022-09-26T00:06:06.307Z,100502.75
2022-09-26T00:08:34.830Z,100498.70
2022-09-26T00:11:03.967Z,100487.81
2022-09-26T00:13:32.751Z,100488.91
2022-09-26T00:16:00.805Z,100490.58
2022-09-26T00:18:28.781Z,100483.85
2022-09-26T00:21:02.986Z,100481.66
2022-09-26T00:23:31.105Z,100478.33
2022-09-26T00:25:59.047Z,100480.66
2022-09-26T00:28:27.524Z,100481.86
2022-09-26T00:30:56.095Z,100481.85
2022-09-26T00:33:24.125Z,100486.25
2022-09-26T00:35:52.373Z,100483.14
2022-09-26T00:38:20.746Z,100481.50
2022-09-26T00:40:49.766Z,100474.55
2022-09-26T00:43:28.460Z,100469.67
2022-09-26T00:45:59.013Z,100470.60
2022-09-26T00:48:27.532Z,100467.83
2022-09-26T00:50:55.554Z,100465.72
2022-09-26T00:53:24.572Z,100462.23
2022-09-26T00:55:54.496Z,100460.69
2022-09-26T00:58:23.940Z,100457.17
2022-09-26T01:00:51.931Z,100458.33
2022-09-26T01:03:20.622Z,100457.92
2022-09-26T01:05:48.615Z,100456.88
2022-09-26T01:08:18.272Z,100454.45
2022-09-26T01:10:46.195Z,100453.67
2022-09-26T01:13:14.568Z,100451.59
2022-09-26T01:15:42.391Z,100451.36
2022-09-26T01:18:10.261Z,100450.47
2022-09-26T01:20:42.696Z,100445.91
2022-09-26T01:23:28.517Z,100445.65
2022-09-26T01:26:08.408Z,100447.64
2022-09-26T01:28:47.890Z,100447.16
2022-09-26T01:31:22.409Z,100440.95
2022-09-26T01:33:55.822Z,100442.67
2022-09-26T01:36:28.093Z,100440.60
2022-09-26T01:39:03.145Z,100441.85
2022-09-26T01:41:38.613Z,100443.01
2022-09-26T01:44:15.538Z,100441.80
2022-09-26T01:46:46.491Z,100437.42
2022-09-26T01:49:18.661Z,100433.59
2022-09-26T01:51:50.724Z,100438.35
2022-09-26T01:54:21.703Z,100442.20
2022-09-26T01:56:51.003Z,100444.32
2022-09-26T01:59:23.842Z,100443.09
2022-09-26T02:01:53.497Z,100439.23
2022-09-26T02:04:24.702Z,100446.21
2022-09-26T02:06:54.852Z,100441.11
2022-09-26T02:09:27.074Z,100436.61
2022-09-26T02:11:56.387Z,100435.70
2022-09-26T02:14:27.264Z,100431.13
2022-09-26T02:16:58.177Z,100432.17
2022-09-26T02:19:27.869Z,100429.11
2022-09-26T02:21:58.075Z,100431.21
2022-09-26T02:24:26.275Z,100433.83
2022-09-26T02:26:54.428Z,100431.33
2022-09-26T02:29:22.632Z,100432.98
2022-09-26T02:31:55.245Z,100438.48
2022-09-26T02:34:24.808Z,100440.36
2022-09-26T02:36:54.507Z,100440.08
2022-09-26T02:39:22.483Z,100439.23
2022-09-26T02:41:52.609Z,100437.73
2022-09-26T02:44:35.796Z,100433.94
2022-09-26T02:47:21.737Z,100432.61
2022-09-26T02:49:57.158Z,100438.34
2022-09-26T02:52:31.353Z,100438.10
2022-09-26T02:55:03.683Z,100436.45
2022-09-26T02:57:37.148Z,100436.39
2022-09-26T03:00:07.484Z,100440.48
2022-09-26T03:02:39.312Z,100441.81
2022-09-26T03:05:09.743Z,100443.42
2022-09-26T03:07:41.501Z,100440.00
2022-09-26T03:10:10.498Z,100433.98
2022-09-26T03:12:39.804Z,100432.02
2022-09-26T03:15:09.412Z,100427.11
2022-09-26T03:17:41.323Z,100422.20
2022-09-26T03:20:11.006Z,100412.23
2022-09-26T03:22:38.995Z,100414.64
2022-09-26T03:25:09.127Z,100408.59
2022-09-26T03:27:39.804Z,100407.27
2022-09-26T03:30:08.846Z,100406.70
2022-09-26T03:32:37.211Z,100403.39
2022-09-26T03:35:05.666Z,100404.23
2022-09-26T03:37:34.549Z,100411.33
2022-09-26T03:40:03.239Z,100410.58
2022-09-26T03:42:32.950Z,100408.27
2022-09-26T03:45:01.210Z,100406.01
2022-09-26T03:47:29.472Z,100410.04
2022-09-26T03:49:57.520Z,100407.56
2022-09-26T03:52:25.563Z,100411.73
2022-09-26T03:54:53.372Z,100410.82
2022-09-26T03:57:21.535Z,100415.84
2022-09-26T03:59:49.655Z,100420.84
2022-09-26T04:02:17.455Z,100420.05
2022-09-26T04:04:45.461Z,100418.54
2022-09-26T04:07:18.438Z,100421.10
2022-09-26T04:09:48.621Z,100415.23
2022-09-26T04:12:16.751Z,100415.50
2022-09-26T04:14:44.674Z,100418.19
2022-09-26T04:17:15.672Z,100410.20
2022-09-26T04:19:46.620Z,100399.20
2022-09-26T04:22:14.448Z,100397.98
2022-09-26T04:24:42.425Z,100397.29
2022-09-26T04:27:26.414Z,100395.61
2022-09-26T04:30:11.212Z,100395.77
2022-09-26T04:32:39.594Z,100393.48
2022-09-26T04:35:08.046Z,100393.56
2022-09-26T04:37:37.608Z,100394.66
2022-09-26T04:40:06.143Z,100391.11
2022-09-26T04:42:34.179Z,100391.52
2022-09-26T04:45:02.196Z,100390.42
2022-09-26T04:47:30.540Z,100387.02
2022-09-26T04:49:58.519Z,100387.94
2022-09-26T04:52:26.951Z,100384.33
2022-09-26T04:54:54.898Z,100382.25
2022-09-26T04:57:22.908Z,100378.96
2022-09-26T04:59:50.899Z,100371.77
2022-09-26T05:02:20.104Z,100366.45
2022-09-26T05:04:48.048Z,100365.10
2022-09-26T05:07:15.979Z,100367.08
2022-09-26T05:09:44.258Z,100367.63
2022-09-26T05:12:16.678Z,100367.98
2022-09-26T05:14:44.539Z,100374.11
2022-09-26T05:17:12.461Z,100380.64
2022-09-26T05:19:42.992Z,100383.13
2022-09-26T05:22:13.971Z,100384.79
2022-09-26T05:25:00.233Z,100386.27
2022-09-26T05:27:28.148Z,100391.92
2022-09-26T05:29:56.385Z,100387.39
2022-09-26T05:32:24.567Z,100388.73
2022-09-26T05:34:53.725Z,100393.23
2022-09-26T05:37:21.674Z,100400.17
2022-09-26T05:40:07.854Z,100402.35
2022-09-26T05:42:35.862Z,100394.61
2022-09-26T05:45:04.362Z,100393.73
2022-09-26T05:47:35.685Z,100394.04
2022-09-26T05:50:09.119Z,100390.86
2022-09-26T05:52:37.651Z,100384.34
2022-09-26T05:55:08.600Z,100384.70
2022-09-26T05:57:39.042Z,100386.27
2022-09-26T06:00:08.203Z,100388.41
2022-09-26T06:02:36.291Z,100385.95
2022-09-26T06:05:07.269Z,100379.87
2022-09-26T06:07:36.093Z,100377.20
2022-09-26T06:10:06.670Z,100380.02
2022-09-26T06:12:35.213Z,100379.92
2022-09-26T06:15:03.424Z,100378.41
2022-09-26T06:17:31.924Z,100382.79
2022-09-26T06:20:01.247Z,100384.80
2022-09-26T06:22:29.506Z,100386.55
2022-09-26T06:24:57.321Z,100385.12
2022-09-26T06:27:25.259Z,100383.30
2022-09-26T06:29:58.119Z,100387.79
2022-09-26T06:32:31.019Z,100391.80
2022-09-26T06:34:58.964Z,100393.23
2022-09-26T06:37:28.632Z,100394.42
2022-09-26T06:39:59.393Z,100396.23
2022-09-26T06:42:27.777Z,100394.08
2022-09-26T06:44:57.054Z,100394.59
2022-09-26T06:47:24.979Z,100389.08
2022-09-26T06:49:52.878Z,100388.65
2022-09-26T06:52:20.950Z,100389.79
2022-09-26T06:54:48.935Z,100384.23
2022-09-26T06:57:22.325Z,100388.67
2022-09-26T06:59:53.354Z,100382.69
2022-09-26T07:02:21.292Z,100387.50
2022-09-26T07:04:49.563Z,100388.73
2022-09-26T07:07:20.913Z,100388.79
2022-09-26T07:09:49.091Z,100392.77
2022-09-26T07:12:17.093Z,100396.09
2022-09-26T07:14:47.931Z,100394.35
2022-09-26T07:17:18.192Z,100401.66
2022-09-26T07:19:51.222Z,100397.40
2022-09-26T07:22:19.069Z,100394.83
2022-09-26T07:24:50.149Z,100390.12
2022-09-26T07:27:18.077Z,100386.77
2022-09-26T07:30:02.851Z,100383.25
2022-09-26T07:32:30.924Z,100373.55
2022-09-26T07:34:59.134Z,100365.36
2022-09-26T07:37:28.715Z,100368.24
2022-09-26T07:40:01.264Z,100368.90
2022-09-26T07:42:29.777Z,100357.95
2022-09-26T07:45:22.332Z,100354.15
2022-09-26T07:48:06.196Z,100352.48
2022-09-26T07:50:36.753Z,100354.36
2022-09-26T07:53:05.862Z,100356.86
2022-09-26T07:55:56.420Z,100358.52
2022-09-26T07:58:25.467Z,100357.82
2022-09-26T08:00:56.189Z,100353.63
2022-09-26T08:03:25.724Z,100343.14
2022-09-26T08:05:58.613Z,100335.71
2022-09-26T08:08:27.569Z,100335.02
2022-09-26T08:11:02.821Z,100333.58
2022-09-26T08:13:32.483Z,100332.70
2022-09-26T08:16:03.807Z,100334.45
2022-09-26T08:18:33.520Z,100331.34
2022-09-26T08:21:05.067Z,100324.00
2022-09-26T08:23:35.241Z,100320.70
2022-09-26T08:26:03.887Z,100320.77
2022-09-26T08:28:31.653Z,100322.13
2022-09-26T08:31:04.375Z,100314.06
2022-09-26T08:33:34.659Z,100314.66
2022-09-26T08:36:06.753Z,100312.95
2022-09-26T08:38:35.873Z,100315.39
2022-09-26T08:41:11.034Z,100310.79
2022-09-26T08:43:48.507Z,100308.27
2022-09-26T08:46:43.301Z,100309.38
2022-09-26T08:49:26.710Z,100310.46
2022-09-26T08:51:57.796Z,100310.27
2022-09-26T08:54:30.944Z,100305.26
2022-09-26T08:57:00.211Z,100304.23
2022-09-26T08:59:31.583Z,100297.73
2022-09-26T09:02:03.466Z,100296.04
2022-09-26T09:04:38.714Z,100287.80
2022-09-26T09:07:11.442Z,100280.30
2022-09-26T09:09:39.276Z,100272.70
2022-09-26T09:12:14.691Z,100267.54
2022-09-26T09:15:23.539Z,100269.52
2022-09-26T09:17:59.852Z,100278.85
2022-09-26T09:20:34.074Z,100284.35
2022-09-26T09:23:14.053Z,100293.71
2022-09-26T09:25:47.585Z,100294.56
2022-09-26T09:28:23.539Z,100285.17
2022-09-26T09:30:56.831Z,100286.57
2022-09-26T09:33:27.160Z,100279.23
2022-09-26T09:35:56.632Z,100265.94
2022-09-26T09:38:28.138Z,100265.95
2022-09-26T09:41:02.661Z,100265.94
2022-09-26T09:43:34.991Z,100261.27
2022-09-26T09:46:05.096Z,100267.04
2022-09-26T09:48:33.365Z,100261.73
2022-09-26T09:51:14.220Z,100253.61
2022-09-26T09:53:56.235Z,100250.48
2022-09-26T09:56:29.924Z,100254.02
2022-09-26T09:59:06.338Z,100251.20
2022-09-26T10:01:36.113Z,100247.55
2022-09-26T10:04:20.258Z,100246.63
2022-09-26T10:06:48.494Z,100245.58
2022-09-26T10:09:38.240Z,100244.55
2022-09-26T10:12:10.288Z,100250.04
2022-09-26T10:14:45.968Z,100258.44
2022-09-26T10:17:19.267Z,100253.39
2022-09-26T10:19:50.103Z,100238.08
2022-09-26T10:22:25.578Z,100232.17
2022-09-26T10:25:01.529Z,100234.23
2022-09-26T10:27:36.309Z,100229.86
2022-09-26T10:30:06.756Z,100224.30
2022-09-26T10:32:45.163Z,100220.41
2022-09-26T10:35:19.700Z,100229.23
2022-09-26T10:37:57.492Z,100225.95
2022-09-26T10:40:45.810Z,100222.21
2022-09-26T10:43:30.730Z,100225.17
2022-09-26T10:46:07.987Z,100231.42
2022-09-26T10:48:42.422Z,100223.86
2022-09-26T10:51:10.582Z,100214.16
2022-09-26T10:53:40.712Z,100218.63
2022-09-26T10:56:10.871Z,100221.15
2022-09-26T10:58:41.176Z,100215.41
2022-09-26T11:01:18.532Z,100213.27
2022-09-26T11:03:46.815Z,100213.17
2022-09-26T11:06:26.593Z,100218.06
2022-09-26T11:08:56.712Z,100212.33
2022-09-26T11:11:26.188Z,100214.27
2022-09-26T11:14:03.588Z,100208.71
2022-09-26T11:16:38.463Z,100203.30
2022-09-26T11:19:10.896Z,100200.96
2022-09-26T11:21:42.285Z,100203.80
2022-09-26T11:24:15.795Z,100200.76
2022-09-26T11:26:48.616Z,100194.06
2022-09-26T11:29:19.762Z,100185.94
2022-09-26T11:31:47.998Z,100187.21
2022-09-26T11:34:19.388Z,100184.50
2022-09-26T11:37:01.880Z,100183.73
2022-09-26T11:39:40.346Z,100176.98
2022-09-26T11:42:16.700Z,100175.48
2022-09-26T11:44:53.244Z,100176.06
2022-09-26T11:47:36.272Z,100173.36
2022-09-26T11:50:13.440Z,100169.86
2022-09-26T11:52:49.506Z,100168.75
2022-09-26T11:55:25.864Z,100165.21
2022-09-26T11:57:59.496Z,100155.06
2022-09-26T12:00:30.918Z,100153.02
2022-09-26T12:03:07.612Z,100147.02
2022-09-26T12:05:43.658Z,100139.86
2022-09-26T12:08:21.847Z,100139.65
2022-09-26T12:10:56.168Z,100142.42
2022-09-26T12:13:33.682Z,100137.84
2022-09-26T12:16:09.078Z,100133.98
2022-09-26T12:18:43.530Z,100133.81
2022-09-26T12:21:18.670Z,100138.47
2022-09-26T12:23:50.536Z,100135.31
2022-09-26T12:26:22.209Z,100134.36
2022-09-26T12:29:04.500Z,100137.50
2022-09-26T12:31:38.512Z,100130.44
2022-09-26T12:34:18.996Z,100129.52
2022-09-26T12:36:54.866Z,100122.70
2022-09-26T12:39:31.529Z,100121.76
2022-09-26T12:42:07.480Z,100117.83
2022-09-26T12:44:41.977Z,100119.48
2022-09-26T12:47:20.818Z,100119.95
2022-09-26T12:50:00.171Z,100118.06
2022-09-26T12:52:36.915Z,100118.50
2022-09-26T12:55:14.199Z,100117.64
2022-09-26T12:57:47.517Z,100113.95
2022-09-26T13:00:20.233Z,100108.46
2022-09-26T13:03:13.649Z,100105.61
2022-09-26T13:05:56.059Z,100102.34
2022-09-26T13:08:30.374Z,100105.13
2022-09-26T13:11:06.260Z,100106.02
2022-09-26T13:13:51.103Z,100106.73
2022-09-26T13:16:33.709Z,100102.92
2022-09-26T13:19:05.345Z,100102.48
2022-09-26T13:21:40.696Z,100104.54
2022-09-26T13:24:13.310Z,100106.36
2022-09-26T13:26:46.261Z,100103.52
2022-09-26T13:29:26.692Z,100101.84
2022-09-26T13:32:01.560Z,100092.17
2022-09-26T13:34:33.916Z,100090.95
2022-09-26T13:37:03.838Z,100087.65
2022-09-26T13:39:37.951Z,100084.89
2022-09-26T13:42:09.145Z,100073.01
2022-09-26T13:44:48.957Z,100073.03
2022-09-26T13:47:21.949Z,100067.96
2022-09-26T13:49:56.763Z,100059.97
2022-09-26T13:52:39.268Z,100060.30
2022-09-26T13:55:14.189Z,100057.19
2022-09-26T13:57:46.393Z,100054.26
2022-09-26T14:00:38.320Z,100053.23
2022-09-26T14:03:21.166Z,100048.50
2022-09-26T14:05:50.322Z,100049.72
2022-09-26T14:08:47.371Z,100049.51
2022-09-26T14:11:24.039Z,100049.13
2022-09-26T14:14:06.070Z,100050.96
2022-09-26T14:16:34.729Z,100045.99
2022-09-26T14:19:05.842Z,100040.02
2022-09-26T14:21:44.120Z,100035.93
2022-09-26T14:24:30.086Z,100030.33
2022-09-26T14:27:03.232Z,100028.58
2022-09-26T14:29:35.594Z,100029.42
2022-09-26T14:32:05.144Z,100019.30
2022-09-26T14:34:37.518Z,100013.82
2022-09-26T14:37:22.968Z,100015.06
2022-09-26T14:39:52.523Z,100018.77
2022-09-26T14:42:24.272Z,100017.71
2022-09-26T14:44:56.136Z,100017.09
2022-09-26T14:47:24.981Z,100019.71
2022-09-26T14:49:54.577Z,100020.39
2022-09-26T14:52:24.726Z,100009.42
2022-09-26T14:54:55.264Z,100005.89
2022-09-26T14:57:28.362Z,100010.04
2022-09-26T14:59:56.902Z,100009.08
2022-09-26T15:02:28.162Z,100007.27
2022-09-26T15:05:13.013Z,100005.77
2022-09-26T15:07:45.336Z,99999.92
2022-09-26T15:10:26.892Z,99997.52
2022-09-26T15:12:57.252Z,99997.40
2022-09-26T15:15:45.266Z,99990.83
2022-09-26T15:18:17.715Z,99985.89
2022-09-26T15:20:49.732Z,99981.65
2022-09-26T15:23:21.512Z,99988.66
2022-09-26T15:25:49.932Z,99993.69
2022-09-26T15:28:17.960Z,99994.29
2022-09-26T15:30:45.991Z,99992.24
2022-09-26T15:33:16.717Z,99991.23
2022-09-26T15:35:53.239Z,99984.67
2022-09-26T15:38:23.651Z,99979.70
2022-09-26T15:41:01.286Z,99981.55
2022-09-26T15:43:33.837Z,99977.98
2022-09-26T15:46:07.283Z,99971.74
2022-09-26T15:48:43.671Z,99980.23
2022-09-26T15:51:14.865Z,99983.55
2022-09-26T15:53:44.983Z,99988.20
2022-09-26T15:56:14.709Z,99989.75
2022-09-26T15:58:46.537Z,99989.34
2022-09-26T16:01:15.830Z,99989.07
2022-09-26T16:03:46.054Z,99992.35
2022-09-26T16:06:23.739Z,99987.99
2022-09-26T16:08:54.087Z,99986.54
2022-09-26T16:11:22.689Z,99989.14
2022-09-26T16:13:51.859Z,99986.32
2022-09-26T16:16:24.217Z,99984.90
2022-09-26T16:18:54.660Z,99980.17
2022-09-26T16:21:23.844Z,99979.34
2022-09-26T16:23:52.653Z,99982.04
2022-09-26T16:26:31.974Z,99981.45
2022-09-26T16:29:00.205Z,99981.95
2022-09-26T16:31:35.814Z,99980.14
2022-09-26T16:34:16.705Z,99983.56
2022-09-26T16:36:45.364Z,99986.96
2022-09-26T16:39:19.387Z,99982.05
2022-09-26T16:42:02.843Z,99982.48
2022-09-26T16:44:35.728Z,99986.20
2022-09-26T16:47:06.040Z,99990.71
2022-09-26T16:49:41.621Z,99993.05
2022-09-26T16:52:11.271Z,99997.83
2022-09-26T16:54:39.294Z,100002.40
2022-09-26T16:57:15.592Z,100006.92
2022-09-26T16:59:43.546Z,100009.41
2022-09-26T17:02:14.053Z,100008.50
2022-09-26T17:04:43.073Z,100004.67
2022-09-26T17:07:12.615Z,100002.38
2022-09-26T17:09:42.139Z,100000.80
2022-09-26T17:12:14.077Z,100001.80
2022-09-26T17:14:42.639Z,100005.64
2022-09-26T17:17:15.590Z,100003.13
2022-09-26T17:19:45.705Z,99998.90
2022-09-26T17:22:14.565Z,100003.39
2022-09-26T17:24:42.936Z,100001.08
2022-09-26T17:27:13.834Z,100003.14
2022-09-26T17:29:43.383Z,100004.41
2022-09-26T17:32:13.277Z,100003.89
2022-09-26T17:34:41.167Z,99991.42
2022-09-26T17:37:10.404Z,99988.45
2022-09-26T17:39:38.441Z,99989.66
2022-09-26T17:42:06.353Z,99996.32
2022-09-26T17:44:36.424Z,99999.88
2022-09-26T17:47:06.681Z,100001.48
2022-09-26T17:49:35.927Z,100000.82
2022-09-26T17:52:05.042Z,100002.77
2022-09-26T17:54:42.362Z,100010.07
2022-09-26T17:57:13.695Z,100013.11
2022-09-26T17:59:42.063Z,100006.64
2022-09-26T18:02:16.981Z,100006.22
2022-09-26T18:04:45.712Z,100004.23
2022-09-26T18:07:15.712Z,100005.10
2022-09-26T18:09:44.131Z,99998.94
2022-09-26T18:12:15.019Z,99988.62
2022-09-26T18:14:43.221Z,99985.70
2022-09-26T18:17:13.803Z,99986.70
2022-09-26T18:19:41.875Z,99987.45
2022-09-26T18:22:14.645Z,99988.65
2022-09-26T18:24:44.825Z,99992.83
2022-09-26T18:27:14.167Z,99993.60
2022-09-26T18:29:43.276Z,99983.67
2022-09-26T18:32:16.832Z,99980.81
2022-09-26T18:34:44.856Z,99977.50
2022-09-26T18:37:12.792Z,99969.19
2022-09-26T18:39:40.944Z,99962.23
2022-09-26T18:42:12.651Z,99964.88
2022-09-26T18:44:42.522Z,99962.79
2022-09-26T18:47:14.225Z,99964.70
2022-09-26T18:49:44.158Z,99960.93
2022-09-26T18:52:15.011Z,99952.21
2022-09-26T18:54:44.448Z,99950.71
2022-09-26T18:57:35.879Z,99948.23
2022-09-26T19:00:04.911Z,99952.58
2022-09-26T19:02:37.683Z,99954.35
2022-09-26T19:05:07.281Z,99958.73
2022-09-26T19:07:35.632Z,99954.83
2022-09-26T19:10:03.850Z,99948.05
2022-09-26T19:12:32.042Z,99938.91
2022-09-26T19:15:00.244Z,99936.53
2022-09-26T19:17:28.335Z,99934.86
2022-09-26T19:19:56.568Z,99936.82
2022-09-26T19:22:25.645Z,99934.48
2022-09-26T19:24:56.025Z,99927.12
2022-09-26T19:27:25.768Z,99923.95
2022-09-26T19:29:56.880Z,99922.94
2022-09-26T19:32:33.061Z,99924.83
2022-09-26T19:35:02.882Z,99929.61
2022-09-26T19:37:30.953Z,99927.98
2022-09-26T19:39:59.464Z,99926.53
2022-09-26T19:42:27.511Z,99927.54
2022-09-26T19:44:55.920Z,99931.26
2022-09-26T19:47:24.052Z,99933.30
2022-09-26T19:49:52.754Z,99924.20
2022-09-26T19:52:21.562Z,99919.68
2022-09-26T19:54:49.847Z,99915.98
2022-09-26T19:57:18.999Z,99918.70
2022-09-26T19:59:47.829Z,99921.59
2022-09-26T20:02:17.038Z,99924.44
2022-09-26T20:04:45.265Z,99921.90
2022-09-26T20:07:16.846Z,99926.95
2022-09-26T20:09:45.418Z,99929.60
2022-09-26T20:12:13.992Z,99930.71
2022-09-26T20:14:45.696Z,99925.73
2022-09-26T20:17:18.919Z,99920.19
2022-09-26T20:19:48.049Z,99914.41
2022-09-26T20:22:16.795Z,99913.11
2022-09-26T20:24:47.681Z,99912.05
2022-09-26T20:27:17.901Z,99905.34
2022-09-26T20:30:12.588Z,99898.08
2022-09-26T20:32:43.353Z,99896.09
2022-09-26T20:35:13.470Z,99899.50
2022-09-26T20:37:41.887Z,99898.59
2022-09-26T20:40:13.374Z,99897.80
2022-09-26T20:42:44.576Z,99890.88
2022-09-26T20:45:16.157Z,99884.11
2022-09-26T20:47:44.856Z,99877.30
2022-09-26T20:50:15.064Z,99874.23
2022-09-26T20:52:43.173Z,99871.27
2022-09-26T20:55:15.092Z,99865.87
2022-09-26T20:57:43.243Z,99864.48
2022-09-26T21:00:15.043Z,99861.69
2022-09-26T21:02:43.685Z,99858.59
2022-09-26T21:05:15.684Z,99855.30
2022-09-26T21:07:44.153Z,99859.04
2022-09-26T21:10:22.779Z,99860.06
2022-09-26T21:12:50.857Z,99865.95
2022-09-26T21:15:19.422Z,99864.21
2022-09-26T21:17:47.793Z,99860.45
2022-09-26T21:20:17.097Z,99853.90
2022-09-26T21:22:45.122Z,99852.67
2022-09-26T21:25:17.188Z,99843.52
2022-09-26T21:27:45.516Z,99834.77
2022-09-26T21:30:14.676Z,99830.05
2022-09-26T21:32:44.848Z,99826.58
2022-09-26T21:35:14.446Z,99827.54
2022-09-26T21:37:42.668Z,99831.08
2022-09-26T21:40:11.200Z,99827.77
2022-09-26T21:42:41.027Z,99831.35
2022-09-26T21:45:13.843Z,99825.77
2022-09-26T21:47:42.530Z,99824.65
2022-09-26T21:50:12.527Z,99833.09
2022-09-26T21:52:44.098Z,99841.54
2022-09-26T21:55:13.881Z,99845.00
2022-09-26T21:57:43.271Z,99846.88
2022-09-26T22:00:13.278Z,99846.86
2022-09-26T22:02:41.581Z,99849.35
2022-09-26T22:05:10.243Z,99844.73
2022-09-26T22:07:39.042Z,99833.23
2022-09-26T22:10:07.733Z,99828.84
2022-09-26T22:12:35.872Z,99824.91
2022-09-26T22:15:06.472Z,99819.07
2022-09-26T22:17:34.536Z,99816.23
2022-09-26T22:20:03.099Z,99806.90
2022-09-26T22:22:31.829Z,99810.26
2022-09-26T22:25:03.778Z,99811.45
2022-09-26T22:27:32.639Z,99814.08
2022-09-26T22:30:00.855Z,99815.41
2022-09-26T22:32:28.945Z,99807.38
2022-09-26T22:34:56.940Z,99803.23
2022-09-26T22:37:25.161Z,99799.05
2022-09-26T22:39:53.125Z,99796.94
2022-09-26T22:42:21.255Z,99793.39
2022-09-26T22:44:49.188Z,99795.62
2022-09-26T22:47:17.184Z,99799.17
2022-09-26T22:49:45.380Z,99803.38
2022-09-26T22:52:13.471Z,99803.48
2022-09-26T22:54:41.500Z,99803.78
2022-09-26T22:57:09.621Z,99806.38
2022-09-26T22:59:38.539Z,99806.37
2022-09-26T23:02:06.590Z,99802.81
2022-09-26T23:04:46.691Z,99796.90
2022-09-26T23:07:15.563Z,99791.38
2022-09-26T23:09:43.602Z,99786.86
2022-09-26T23:12:12.391Z,99783.30
2022-09-26T23:14:41.073Z,99784.16
2022-09-26T23:17:09.309Z,99776.45
2022-09-26T23:19:37.630Z,99782.42
2022-09-26T23:22:06.176Z,99788.56
2022-09-26T23:24:34.390Z,99789.55
2022-09-26T23:27:02.541Z,99790.27
2022-09-26T23:29:30.449Z,99793.14
2022-09-26T23:31:58.484Z,99786.77
2022-09-26T23:34:26.432Z,99787.22
2022-09-26T23:36:54.702Z,99784.31
2022-09-26T23:39:23.148Z,99781.68
2022-09-26T23:41:51.220Z,99773.32
2022-09-26T23:44:19.341Z,99763.33
2022-09-26T23:46:47.389Z,99757.33
2022-09-26T23:49:15.648Z,99759.77
2022-09-26T23:51:43.808Z,99763.54
2022-09-26T23:54:11.809Z,99763.17
2022-09-26T23:56:40.600Z,99755.58
2022-09-26T23:59:08.744Z,99745.00
